Time;durP1;ratioP1;P1;durP2;ratioP2;P2;SDS_P1;SDS_P2;PMS_P1;PMS_P2;Temp;Humidity;BMP_temperature;BMP_pressure;BME280_temperature;BME280_humidity;BME280_pressure;Samples;Min_cycle;Max_cycle;Signal;HPM_P1;HPM_P2
2021/07/02 00:00:38;;;;;;;8.85;4.20;;;;;;;22.83;68.61;98567.63;1801369;78;21071;-45
2021/07/02 00:03:05;;;;;;;7.10;4.83;;;;;;;22.86;68.25;98566.70;1800311;78;21033;-45
2021/07/02 00:05:31;;;;;;;5.65;4.75;;;;;;;22.85;68.20;98571.33;1800664;78;21102;-44
2021/07/02 00:07:58;;;;;;;5.87;4.58;;;;;;;22.79;68.52;98572.55;1798887;78;20988;-44
2021/07/02 00:10:24;;;;;;;5.00;4.28;;;;;;;22.69;68.62;98570.21;1801637;78;21000;-45
2021/07/02 00:12:51;;;;;;;6.25;4.42;;;;;;;22.63;68.90;98564.52;1745056;82;21041;-45
2021/07/02 00:15:18;;;;;;;7.60;4.45;;;;;;;22.67;68.66;98568.52;1800466;78;21547;-45
2021/07/02 00:17:44;;;;;;;8.58;5.37;;;;;;;22.68;68.58;98573.59;1801806;78;21097;-45
2021/07/02 00:20:13;;;;;;;5.92;4.50;;;;;;;22.63;68.67;98571.43;1795869;78;21071;-45
2021/07/02 00:22:40;;;;;;;7.17;5.33;;;;;;;22.52;68.82;98571.11;1791751;78;21018;-45
2021/07/02 00:25:08;;;;;;;6.85;4.60;;;;;;;22.46;69.02;98572.96;1798082;78;21064;-45
2021/07/02 00:27:35;;;;;;;6.15;5.28;;;;;;;22.46;68.76;98581.25;1785476;78;20997;-45
2021/07/02 00:30:01;;;;;;;7.10;5.05;;;;;;;22.47;68.53;98589.66;1770303;80;21117;-45
2021/07/02 00:32:28;;;;;;;8.35;5.50;;;;;;;22.34;68.75;98587.05;1787001;78;21509;-44
2021/07/02 00:34:55;;;;;;;7.35;5.80;;;;;;;22.25;69.28;98580.73;1803156;78;20941;-45
2021/07/02 00:37:21;;;;;;;7.15;5.12;;;;;;;22.14;69.37;98574.87;1800292;78;21088;-47
2021/07/02 00:39:48;;;;;;;5.92;4.87;;;;;;;22.05;69.47;98576.39;1748800;80;21088;-45
2021/07/02 00:42:15;;;;;;;6.75;6.03;;;;;;;22.08;69.51;98577.45;1806490;77;21077;-45
2021/07/02 00:44:47;;;;;;;7.78;5.87;;;;;;;22.09;69.68;98565.97;1807737;77;21523;-45
2021/07/02 00:47:16;;;;;;;6.00;5.37;;;;;;;22.08;69.83;98563.66;1795535;78;20940;-45
2021/07/02 00:49:43;;;;;;;6.80;5.00;;;;;;;22.10;70.11;98564.75;1799141;78;21029;-45
2021/07/02 00:52:12;;;;;;;7.70;5.60;;;;;;;22.13;70.24;98560.91;1794457;78;21016;-45
2021/07/02 00:54:43;;;;;;;7.92;6.50;;;;;;;22.18;70.15;98565.83;1818956;77;20906;-45
2021/07/02 00:57:10;;;;;;;10.28;7.30;;;;;;;22.23;69.94;98569.37;1793904;78;21048;-45
2021/07/02 00:59:41;;;;;;;9.73;7.78;;;;;;;22.25;69.95;98565.55;1808240;77;21541;-44
2021/07/02 01:02:08;;;;;;;12.10;7.58;;;;;;;22.22;69.92;98565.09;1802410;77;21594;-45
2021/07/02 01:04:35;;;;;;;7.05;6.35;;;;;;;22.19;69.88;98561.84;1816585;77;21040;-45
2021/07/02 01:07:04;;;;;;;8.07;6.10;;;;;;;22.13;69.78;98568.58;1803681;77;21114;-45
2021/07/02 01:09:31;;;;;;;8.75;6.53;;;;;;;22.12;70.07;98571.20;1817218;77;21387;-44
2021/07/02 01:12:00;;;;;;;9.80;7.05;;;;;;;22.10;70.31;98561.98;1809872;77;21007;-44
2021/07/02 01:14:28;;;;;;;9.18;6.87;;;;;;;22.04;70.60;98563.03;1782083;77;21510;-45
2021/07/02 01:16:57;;;;;;;9.68;6.40;;;;;;;21.94;70.69;98558.09;1780129;78;21111;-45
2021/07/02 01:19:26;;;;;;;7.72;5.90;;;;;;;21.88;71.04;98556.38;1791249;77;21192;-45
2021/07/02 01:21:54;;;;;;;6.67;6.00;;;;;;;21.89;71.10;98551.77;1801291;77;20929;-45
2021/07/02 01:24:23;;;;;;;8.85;7.20;;;;;;;21.92;71.19;98557.00;1787168;78;21538;-45
2021/07/02 01:26:50;;;;;;;9.08;7.05;;;;;;;21.88;71.00;98555.73;1788372;78;20924;-44
2021/07/02 01:29:18;;;;;;;9.45;6.92;;;;;;;21.83;71.28;98554.98;1795887;78;21518;-45
2021/07/02 01:31:45;;;;;;;10.55;6.47;;;;;;;21.83;71.24;98542.56;1808621;77;21108;-44
2021/07/02 01:34:12;;;;;;;10.43;7.12;;;;;;;21.88;71.03;98543.96;1813169;77;20996;-45
2021/07/02 01:36:40;;;;;;;8.78;7.28;;;;;;;21.84;70.91;98549.59;1808934;77;21523;-45
2021/07/02 01:39:09;;;;;;;11.05;7.65;;;;;;;21.78;71.06;98554.20;1810866;78;20996;-45
2021/07/02 01:41:37;;;;;;;9.60;7.50;;;;;;;21.73;71.02;98549.27;1802878;77;21082;-45
2021/07/02 01:44:05;;;;;;;9.93;6.58;;;;;;;21.65;71.15;98546.00;1796816;78;21103;-45
2021/07/02 01:46:32;;;;;;;11.57;7.85;;;;;;;21.61;71.18;98552.88;1811065;77;20964;-44
2021/07/02 01:49:00;;;;;;;10.53;7.72;;;;;;;21.57;71.32;98559.15;1807614;77;21036;-45
2021/07/02 01:51:28;;;;;;;14.25;8.80;;;;;;;21.55;71.40;98560.20;1819596;77;20968;-44
2021/07/02 01:53:57;;;;;;;9.55;7.62;;;;;;;21.48;71.51;98559.87;1808158;77;21045;-44
2021/07/02 01:56:25;;;;;;;9.23;7.67;;;;;;;21.49;71.64;98562.03;1798665;77;22098;-45
2021/07/02 01:58:54;;;;;;;11.70;7.83;;;;;;;21.49;71.54;98573.06;1800234;77;20973;-45
2021/07/02 02:01:25;;;;;;;13.10;8.05;;;;;;;21.48;71.58;98568.76;1804844;77;21008;-45
2021/07/02 02:03:53;;;;;;;11.00;8.68;;;;;;;21.47;71.67;98567.22;1812586;77;21038;-45
2021/07/02 02:06:21;;;;;;;9.43;8.43;;;;;;;21.50;71.59;98558.03;1808714;77;21009;-45
2021/07/02 02:08:48;;;;;;;9.15;7.90;;;;;;;21.55;71.50;98560.20;1815192;77;21124;-45
2021/07/02 02:11:15;;;;;;;10.40;7.83;;;;;;;21.65;71.21;98562.55;1805289;77;20985;-45
2021/07/02 02:13:44;;;;;;;10.98;8.10;;;;;;;21.73;71.03;98561.69;1806201;77;21494;-45
2021/07/02 02:16:12;;;;;;;10.55;8.95;;;;;;;21.78;70.90;98554.80;1808245;77;21068;-45
2021/07/02 02:18:42;;;;;;;;;;;;;;;21.81;70.65;98559.41;1798906;77;20963;-45
2021/07/02 02:21:09;;;;;;;11.03;7.83;;;;;;;21.84;70.45;98567.53;1796673;77;22407;-45
2021/07/02 02:23:35;;;;;;;13.20;8.35;;;;;;;21.78;70.64;98569.98;1810408;77;20912;-44
2021/07/02 02:26:03;;;;;;;11.53;8.68;;;;;;;21.77;70.80;98567.83;1808579;77;21032;-44
2021/07/02 02:28:31;;;;;;;9.98;8.98;;;;;;;21.71;70.81;98566.88;1823296;77;21061;-45
2021/07/02 02:30:58;;;;;;;9.00;8.03;;;;;;;21.60;71.11;98572.02;1813601;77;21024;-45
2021/07/02 02:33:26;;;;;;;10.82;7.90;;;;;;;21.54;71.44;98580.11;1793924;77;21069;-45
2021/07/02 02:35:54;;;;;;;10.00;8.18;;;;;;;21.51;71.59;98588.53;1806418;77;21577;-45
2021/07/02 02:38:21;;;;;;;11.90;8.90;;;;;;;21.56;71.69;98598.98;1826684;78;20960;-45
2021/07/02 02:40:48;;;;;;;11.00;8.10;;;;;;;21.59;71.61;98594.70;1814126;77;21052;-44
2021/07/02 02:43:15;;;;;;;9.38;8.00;;;;;;;21.57;71.54;98601.30;1789941;77;21036;-45
2021/07/02 02:45:44;;;;;;;11.40;7.43;;;;;;;21.54;71.70;98606.95;1795764;77;20996;-45
2021/07/02 02:48:11;;;;;;;10.38;8.43;;;;;;;21.62;71.62;98612.35;1808452;78;22029;-44
2021/07/02 02:50:39;;;;;;;9.03;8.13;;;;;;;21.66;71.47;98604.70;1815590;77;21036;-45
2021/07/02 02:53:05;;;;;;;12.58;9.33;;;;;;;21.67;71.57;98620.05;1829234;78;21033;-45
2021/07/02 02:55:33;;;;;;;10.48;8.05;;;;;;;21.67;71.58;98620.81;1796897;77;21189;-45
2021/07/02 02:58:00;;;;;;;12.58;7.80;;;;;;;21.63;71.64;98623.55;1799307;77;21075;-45
2021/07/02 03:00:28;;;;;;;13.80;8.63;;;;;;;21.63;71.61;98620.19;1791442;77;20941;-45
2021/07/02 03:02:55;;;;;;;14.33;7.75;;;;;;;21.63;71.53;98625.70;1794898;77;20870;-45
2021/07/02 03:05:22;;;;;;;11.48;7.75;;;;;;;21.57;72.07;98630.86;1791431;77;21059;-45
2021/07/02 03:07:52;;;;;;;9.33;8.30;;;;;;;21.53;72.01;98637.13;1785947;77;21019;-45
2021/07/02 03:10:21;;;;;;;10.43;8.50;;;;;;;21.49;72.10;98637.27;1779345;77;21611;-45
2021/07/02 03:12:47;;;;;;;9.63;8.63;;;;;;;21.47;72.25;98641.67;1796900;77;20969;-45
2021/07/02 03:15:15;;;;;;;10.88;7.87;;;;;;;21.46;72.20;98647.80;1808166;78;20984;-44
2021/07/02 03:17:42;;;;;;;10.80;7.97;;;;;;;21.45;72.24;98643.50;1802644;77;21002;-44
2021/07/02 03:20:10;;;;;;;12.93;8.10;;;;;;;21.45;72.18;98642.72;1786587;78;21008;-45
2021/07/02 03:22:38;;;;;;;9.73;8.70;;;;;;;21.47;72.20;98634.78;1804609;77;21078;-45
2021/07/02 03:25:07;;;;;;;10.35;8.80;;;;;;;21.46;72.10;98640.13;1787697;77;20964;-45
2021/07/02 03:27:34;;;;;;;8.70;6.95;;;;;;;21.42;72.42;98641.65;1791298;77;20949;-45
2021/07/02 03:30:01;;;;;;;12.75;7.75;;;;;;;21.42;72.39;98639.50;1786291;78;21049;-45
2021/07/02 03:32:29;;;;;;;12.13;7.95;;;;;;;21.47;72.13;98634.78;1780789;78;21956;-45
2021/07/02 03:34:58;;;;;;;13.03;7.92;;;;;;;21.48;72.13;98626.67;1799183;77;21133;-45
2021/07/02 03:37:26;;;;;;;13.88;7.55;;;;;;;21.46;72.19;98633.23;1802172;77;21705;-45
2021/07/02 03:39:54;;;;;;;10.58;7.17;;;;;;;21.46;72.17;98642.89;1807433;77;20906;-45
2021/07/02 03:42:20;;;;;;;11.00;7.42;;;;;;;21.45;72.26;98647.63;1797147;77;21060;-45
2021/07/02 03:44:47;;;;;;;9.60;7.60;;;;;;;21.45;72.40;98644.10;1792701;77;21026;-45
2021/07/02 03:47:14;;;;;;;10.48;8.18;;;;;;;21.42;72.56;98636.13;1785387;77;21924;-45
2021/07/02 03:49:42;;;;;;;10.55;6.85;;;;;;;21.41;72.73;98632.44;1784857;79;21037;-45
2021/07/02 03:52:09;;;;;;;11.00;7.30;;;;;;;21.45;72.74;98639.97;1810330;78;20992;-45
2021/07/02 03:54:36;;;;;;;10.32;7.60;;;;;;;21.49;72.42;98648.30;1808654;78;21547;-45
2021/07/02 03:57:19;;;;;;;13.60;8.10;;;;;;;21.52;72.47;98644.63;1798238;77;21053;-45
2021/07/02 03:59:47;;;;;;;10.08;7.20;;;;;;;21.53;72.23;98649.54;1731687;81;21138;-46
2021/07/02 04:02:14;;;;;;;8.05;7.05;;;;;;;21.53;72.40;98657.20;1797604;77;20992;-45
2021/07/02 04:04:41;;;;;;;8.33;6.62;;;;;;;21.59;72.40;98654.00;1802514;77;21087;-45
2021/07/02 04:07:10;;;;;;;9.70;6.78;;;;;;;21.64;72.10;98657.56;1795435;77;20973;-46
2021/07/02 04:09:36;;;;;;;10.03;7.37;;;;;;;21.68;71.99;98657.45;1796068;77;21051;-45
2021/07/02 04:12:05;;;;;;;8.53;6.90;;;;;;;21.71;72.22;98651.63;1799821;77;21114;-46
2021/07/02 04:14:33;;;;;;;7.72;6.95;;;;;;;21.73;71.84;98647.21;1787774;77;20977;-45
2021/07/02 04:17:01;;;;;;;10.58;7.17;;;;;;;21.78;71.78;98649.39;1792673;77;21083;-46
2021/07/02 04:19:28;;;;;;;11.70;7.65;;;;;;;21.82;72.07;98645.88;1798486;77;21002;-46
2021/07/02 04:21:56;;;;;;;8.90;7.17;;;;;;;21.85;72.06;98644.96;1804175;79;21033;-46
2021/07/02 04:24:23;;;;;;;8.53;6.47;;;;;;;21.99;72.29;98644.44;1793194;77;21103;-46
2021/07/02 04:26:49;;;;;;;6.95;5.78;;;;;;;22.17;71.98;98638.86;1812748;77;21622;-45
2021/07/02 04:29:17;;;;;;;8.65;6.67;;;;;;;22.32;70.91;98638.42;1792366;79;20961;-46
2021/07/02 04:31:44;;;;;;;9.05;7.53;;;;;;;22.34;70.89;98635.38;1799929;78;21863;-45
2021/07/02 04:34:10;;;;;;;7.78;6.08;;;;;;;22.37;70.39;98640.59;1811181;79;21024;-46
2021/07/02 04:36:37;;;;;;;10.90;6.80;;;;;;;22.37;70.13;98640.59;1806208;79;21895;-45
2021/07/02 04:39:04;;;;;;;12.28;7.15;;;;;;;22.40;70.16;98634.17;1800301;79;21017;-45
2021/07/02 04:41:31;;;;;;;9.38;7.22;;;;;;;22.43;70.38;98640.15;1804789;79;21823;-46
2021/07/02 04:43:57;;;;;;;7.45;6.65;;;;;;;22.45;70.54;98633.56;1793636;79;21852;-46
2021/07/02 04:46:24;;;;;;;9.75;6.70;;;;;;;22.49;70.55;98629.44;1802512;79;21034;-45
2021/07/02 04:48:52;;;;;;;11.35;6.28;;;;;;;22.58;70.40;98634.81;1803143;79;20977;-46
2021/07/02 04:51:20;;;;;;;8.75;6.37;;;;;;;22.66;70.21;98632.67;1817218;78;21057;-45
2021/07/02 04:53:48;;;;;;;7.92;6.70;;;;;;;22.73;70.21;98638.55;1830714;78;21057;-46
2021/07/02 04:56:15;;;;;;;9.05;6.83;;;;;;;22.73;69.88;98635.18;1824894;78;21547;-46
2021/07/02 04:58:42;;;;;;;10.45;6.95;;;;;;;22.71;69.75;98639.00;1800454;79;20990;-46
2021/07/02 05:01:12;;;;;;;10.70;6.22;;;;;;;22.71;69.67;98638.23;1803271;79;21493;-45
2021/07/02 05:03:39;;;;;;;9.15;7.08;;;;;;;22.78;70.04;98634.58;1780448;80;20951;-46
2021/07/02 05:06:06;;;;;;;10.68;7.30;;;;;;;22.87;69.63;98634.58;1798188;78;20993;-46
2021/07/02 05:08:33;;;;;;;10.10;7.15;;;;;;;22.90;69.47;98639.17;1805252;78;21045;-46
2021/07/02 05:10:59;;;;;;;8.45;6.78;;;;;;;22.88;69.09;98631.20;1819667;78;21104;-46
2021/07/02 05:13:26;;;;;;;10.28;6.53;;;;;;;22.81;69.09;98637.02;1807479;78;21110;-46
2021/07/02 05:15:54;;;;;;;9.83;6.97;;;;;;;22.80;69.51;98640.39;1809329;78;21485;-46
2021/07/02 05:18:21;;;;;;;8.20;6.85;;;;;;;22.86;69.47;98645.47;1787316;79;20954;-45
2021/07/02 05:20:47;;;;;;;12.05;7.30;;;;;;;22.91;69.45;98650.39;1803573;79;21661;-46
2021/07/02 05:23:14;;;;;;;9.55;6.45;;;;;;;22.91;69.07;98639.34;1804125;78;21033;-46
2021/07/02 05:25:41;;;;;;;8.75;6.60;;;;;;;22.91;68.92;98649.02;1805481;77;21481;-45
2021/07/02 05:28:07;;;;;;;9.95;6.85;;;;;;;22.95;68.35;98653.77;1809008;79;20989;-45
2021/07/02 05:30:34;;;;;;;9.55;7.40;;;;;;;22.98;68.80;98654.09;1812493;79;21000;-45
2021/07/02 05:33:01;;;;;;;9.95;7.70;;;;;;;22.94;68.23;98653.64;1802202;78;21347;-45
2021/07/02 05:35:28;;;;;;;9.10;7.08;;;;;;;22.85;68.75;98657.75;1813530;78;21005;-45
2021/07/02 05:37:55;;;;;;;10.53;7.08;;;;;;;22.76;69.10;98660.50;1739618;81;21134;-45
2021/07/02 05:40:21;;;;;;;9.53;6.70;;;;;;;22.75;69.46;98658.22;1772752;80;20930;-46
2021/07/02 05:42:48;;;;;;;10.10;7.22;;;;;;;22.78;69.46;98653.15;1738073;81;21575;-45
2021/07/02 05:45:15;;;;;;;8.78;7.03;;;;;;;22.76;69.04;98656.97;1735430;81;20989;-45
2021/07/02 05:47:49;;;;;;;11.03;7.60;;;;;;;22.71;69.27;98658.34;1755948;81;21630;-45
2021/07/02 05:50:17;;;;;;;9.38;6.85;;;;;;;22.64;68.97;98662.77;1793661;78;21158;-45
2021/07/02 05:52:45;;;;;;;9.38;7.10;;;;;;;22.65;69.22;98659.39;1794849;79;21005;-45
2021/07/02 05:55:13;;;;;;;9.10;7.65;;;;;;;22.68;68.93;98659.85;1810196;79;20956;-46
2021/07/02 05:57:40;;;;;;;8.35;7.05;;;;;;;22.72;69.37;98661.27;1795353;79;20894;-45
2021/07/02 06:00:09;;;;;;;7.45;6.67;;;;;;;22.78;68.87;98660.83;1803342;78;20994;-45
2021/07/02 06:02:37;;;;;;;8.53;7.00;;;;;;;22.81;68.67;98668.80;1812117;77;21131;-45
2021/07/02 06:05:05;;;;;;;10.48;7.67;;;;;;;22.82;68.75;98663.44;1792702;78;21055;-46
2021/07/02 06:07:48;;;;;;;9.83;7.53;;;;;;;22.81;69.18;98671.56;1799800;77;21670;-45
2021/07/02 06:10:17;;;;;;;9.80;8.15;;;;;;;22.78;69.39;98673.88;1800835;77;21032;-45
2021/07/02 06:12:44;;;;;;;10.08;7.50;;;;;;;22.76;69.21;98670.17;1791816;78;21589;-46
2021/07/02 06:15:14;;;;;;;11.15;8.30;;;;;;;22.85;69.53;98674.97;1811744;78;20929;-45
2021/07/02 06:17:41;;;;;;;8.95;7.87;;;;;;;22.91;69.30;98675.88;1788258;79;21555;-45
2021/07/02 06:20:09;;;;;;;10.15;8.10;;;;;;;22.95;69.08;98677.27;1812401;79;20909;-44
2021/07/02 06:22:37;;;;;;;8.60;7.58;;;;;;;22.95;68.75;98672.34;1810847;79;21738;-45
2021/07/02 06:25:06;;;;;;;10.40;7.78;;;;;;;22.98;68.29;98678.97;1800927;79;21045;-45
2021/07/02 06:27:32;;;;;;;9.30;8.23;;;;;;;23.03;68.48;98675.59;1812162;79;21808;-45
2021/07/02 06:29:59;;;;;;;9.55;8.35;;;;;;;23.00;67.57;98667.59;1807891;79;20992;-45
2021/07/02 06:32:26;;;;;;;13.40;8.00;;;;;;;22.92;67.60;98671.89;1808081;78;21012;-45
2021/07/02 06:34:53;;;;;;;9.28;8.20;;;;;;;22.87;67.89;98673.27;1802361;79;20965;-44
2021/07/02 06:37:20;;;;;;;8.90;7.62;;;;;;;22.83;68.22;98669.89;1736995;82;21037;-45
2021/07/02 06:39:47;;;;;;;10.30;8.70;;;;;;;22.84;68.29;98665.14;1740589;80;21217;-48
2021/07/02 06:42:13;;;;;;;9.05;8.25;;;;;;;22.78;67.65;98670.50;1753048;81;21002;-49
2021/07/02 06:44:40;;;;;;;10.23;8.25;;;;;;;22.67;67.95;98675.66;1733648;81;21520;-48
2021/07/02 06:47:07;;;;;;;11.45;8.05;;;;;;;22.58;68.32;98672.88;1729164;81;21049;-49
2021/07/02 06:49:33;;;;;;;9.28;7.50;;;;;;;22.57;68.26;98664.42;1744548;82;21602;-49
2021/07/02 06:52:00;;;;;;;9.05;7.87;;;;;;;22.59;68.43;98661.22;1817636;78;21135;-48
2021/07/02 06:54:27;;;;;;;8.98;8.08;;;;;;;22.66;68.66;98663.67;1808508;79;21485;-48
2021/07/02 06:57:02;;;;;;;9.38;8.03;;;;;;;22.72;68.61;98668.17;1810543;78;21000;-49
2021/07/02 06:59:34;;;;;;;9.38;7.33;;;;;;;22.77;68.27;98673.71;1810509;78;20997;-48
2021/07/02 07:02:01;;;;;;;7.95;6.95;;;;;;;22.85;67.52;98676.36;1790986;78;20993;-48
2021/07/02 07:04:37;;;;;;;10.30;7.50;;;;;;;22.89;66.64;98673.59;1772415;80;22094;-48
2021/07/02 07:07:05;;;;;;;8.65;7.67;;;;;;;22.93;66.60;98668.68;1793368;78;20957;-49
2021/07/02 07:09:33;;;;;;;12.67;8.03;;;;;;;22.95;67.17;98669.58;1812721;79;21503;-47
2021/07/02 07:12:01;;;;;;;9.93;8.23;;;;;;;22.95;66.80;98675.88;1807790;78;21056;-48
2021/07/02 07:14:28;;;;;;;10.90;8.03;;;;;;;22.96;66.50;98673.89;1812783;78;21273;-46
2021/07/02 07:16:56;;;;;;;11.50;9.13;;;;;;;22.91;66.55;98673.12;1804677;78;21501;-46
2021/07/02 07:19:26;;;;;;;8.93;7.60;;;;;;;22.89;66.48;98678.35;1786196;79;20986;-43
2021/07/02 07:21:51;;;;;;;9.33;7.30;;;;;;;22.88;65.77;98680.34;1786613;79;20957;-44
2021/07/02 07:24:18;;;;;;;10.15;7.22;;;;;;;22.95;66.27;98681.41;1817310;78;20977;-45
2021/07/02 07:26:44;;;;;;;12.18;8.40;;;;;;;23.04;66.05;98684.83;1810006;78;21075;-43
2021/07/02 07:29:11;;;;;;;10.28;8.03;;;;;;;23.08;66.41;98679.91;1804752;78;21423;-43
2021/07/02 07:31:38;;;;;;;8.53;7.30;;;;;;;23.11;65.65;98674.05;1802642;78;20886;-44
2021/07/02 07:34:05;;;;;;;9.50;7.65;;;;;;;23.19;65.61;98671.16;1806740;78;20918;-43
2021/07/02 07:36:32;;;;;;;9.13;7.47;;;;;;;23.28;65.05;98669.77;1814024;78;21059;-44
2021/07/02 07:39:00;;;;;;;8.38;7.40;;;;;;;23.30;64.33;98668.67;1812907;78;21104;-43
2021/07/02 07:41:26;;;;;;;8.40;6.75;;;;;;;23.26;63.87;98656.39;1811657;78;21118;-42
2021/07/02 07:43:54;;;;;;;9.13;7.28;;;;;;;23.24;64.02;98653.92;1804367;78;22101;-44
2021/07/02 07:46:24;;;;;;;8.25;6.90;;;;;;;23.25;64.11;98656.23;1798538;78;21036;-45
2021/07/02 07:48:50;;;;;;;8.93;7.37;;;;;;;23.29;64.16;98659.61;1763891;81;20993;-42
2021/07/02 07:51:32;;;;;;;12.40;7.85;;;;;;;23.39;64.26;98652.07;1791347;78;21040;-44
2021/07/02 07:53:48;;;;;;;10.78;7.92;;;;;;;23.56;64.81;98649.17;1808439;78;21159;-44
2021/07/02 07:59:02;;;;;;;10.90;7.60;;;;;;;24.12;63.30;98644.37;1796240;79;22714;-43
2021/07/02 08:01:30;;;;;;;8.55;7.15;;;;;;;24.17;62.38;98656.23;1749192;80;21007;-43
2021/07/02 08:03:56;;;;;;;12.15;8.33;;;;;;;24.24;62.24;98662.06;1736545;81;21111;-44
2021/07/02 08:06:23;;;;;;;8.23;7.47;;;;;;;24.26;61.94;98659.58;1734579;80;20981;-42
2021/07/02 08:08:50;;;;;;;9.08;7.40;;;;;;;24.22;61.74;98667.29;1739432;80;21012;-43
2021/07/02 08:11:17;;;;;;;8.85;7.33;;;;;;;24.15;61.88;98670.38;1756756;80;20985;-41
2021/07/02 08:13:43;;;;;;;7.75;6.67;;;;;;;24.17;62.48;98669.31;1754703;80;20891;-43
2021/07/02 08:16:10;;;;;;;8.50;7.60;;;;;;;24.29;62.29;98675.28;1756339;81;21099;-44
2021/07/02 08:18:37;;;;;;;8.78;7.83;;;;;;;24.37;61.96;98675.08;1756766;81;20960;-43
2021/07/02 08:21:04;;;;;;;11.48;7.83;;;;;;;24.45;62.13;98685.95;1756734;81;20961;-43
2021/07/02 08:23:30;;;;;;;10.68;7.85;;;;;;;24.54;62.30;98687.94;1755073;80;21532;-44
2021/07/02 08:25:57;;;;;;;8.63;6.87;;;;;;;24.65;61.12;98694.48;1755875;81;20990;-44
2021/07/02 08:31:09;;;;;;;9.53;7.33;;;;;;;24.73;60.51;98697.69;1756607;80;21037;-44
2021/07/02 08:33:36;;;;;;;9.83;7.35;;;;;;;24.79;60.09;98701.94;1753893;81;22106;-44
2021/07/02 08:36:04;;;;;;;8.98;6.67;;;;;;;24.94;59.88;98698.64;1740239;80;20945;-45
2021/07/02 08:38:31;;;;;;;9.08;6.70;;;;;;;25.07;58.70;98697.19;1751240;80;21096;-45
2021/07/02 08:40:58;;;;;;;9.30;7.37;;;;;;;25.12;58.79;98711.02;1755633;81;21843;-45
2021/07/02 08:43:25;;;;;;;7.45;6.50;;;;;;;25.16;58.43;98703.28;1751903;80;21616;-45
2021/07/02 08:45:52;;;;;;;8.83;7.22;;;;;;;25.23;58.43;98702.91;1752188;81;20946;-43
2021/07/02 08:48:20;;;;;;;7.05;6.22;;;;;;;25.29;58.16;98709.33;1751219;81;21567;-44
2021/07/02 08:50:54;;;;;;;11.95;6.97;;;;;;;25.34;57.76;98692.03;1754782;80;21530;-44
2021/07/02 08:53:21;;;;;;;8.68;6.90;;;;;;;25.40;57.65;98694.30;1698607;83;21131;-44
2021/07/02 08:55:50;;;;;;;8.15;6.97;;;;;;;25.41;56.57;98693.06;1711009;82;20997;-44
2021/07/02 08:58:16;;;;;;;7.67;6.83;;;;;;;25.37;57.48;98695.23;1715104;81;21510;-44
2021/07/02 09:00:44;;;;;;;10.50;6.67;;;;;;;25.39;58.39;98689.98;1707336;82;21091;-44
2021/07/02 09:03:31;;;;;;;7.12;6.20;;;;;;;25.49;57.97;98685.89;1708280;83;21107;-44
2021/07/02 09:06:14;;;;;;;7.03;6.33;;;;;;;25.64;57.49;98680.38;1683699;83;21079;-44
2021/07/02 09:09:07;;;;;;;9.25;6.90;;;;;;;25.78;58.34;98677.46;1699186;83;20968;-43
2021/07/02 09:11:34;;;;;;;7.20;6.50;;;;;;;25.95;57.90;98676.48;1686089;82;20990;-44
2021/07/02 09:14:03;;;;;;;8.45;6.37;;;;;;;26.15;57.10;98682.74;1686884;84;21050;-44
2021/07/02 09:16:38;;;;;;;7.72;5.80;;;;;;;26.14;56.42;98645.73;1690424;84;21073;-44
2021/07/02 09:19:24;;;;;;;7.90;5.67;;;;;;;26.46;54.76;98680.09;1692337;84;21106;-44
2021/07/02 09:21:51;;;;;;;7.55;6.28;;;;;;;26.46;55.02;98681.47;1702201;84;21474;-44
2021/07/02 09:24:43;;;;;;;9.73;6.50;;;;;;;26.46;55.19;98692.59;1697467;84;21088;-44
2021/07/02 09:27:31;;;;;;;7.97;6.10;;;;;;;26.43;56.02;98689.40;1678937;84;20994;-44
2021/07/02 09:30:08;;;;;;;10.83;6.67;;;;;;;26.44;55.45;98690.91;1691388;84;21028;-44
2021/07/02 09:32:40;;;;;;;9.15;5.95;;;;;;;26.37;55.15;98695.64;1716251;83;21770;-44
2021/07/02 09:35:09;;;;;;;8.20;6.95;;;;;;;26.43;54.82;98697.13;1719736;83;21028;-44
2021/07/02 09:37:42;;;;;;;8.23;6.53;;;;;;;26.49;54.83;98681.89;1719162;83;21031;-44
2021/07/02 09:40:19;;;;;;;7.65;6.60;;;;;;;26.57;54.29;98683.03;1712585;83;21657;-44
2021/07/02 09:42:46;;;;;;;6.72;5.83;;;;;;;26.67;55.00;98672.70;1711732;83;21018;-44
2021/07/02 09:45:16;;;;;;;6.85;6.15;;;;;;;26.80;54.05;98670.95;1713836;83;21137;-43
2021/07/02 09:47:45;;;;;;;10.40;6.95;;;;;;;26.92;53.79;98667.08;1710351;83;20901;-43
2021/07/02 09:50:25;;;;;;;7.35;6.47;;;;;;;26.98;54.14;98669.31;1719034;82;20897;-43
2021/07/02 09:53:09;;;;;;;6.65;6.05;;;;;;;27.05;55.25;98661.95;1700828;83;20988;-43
2021/07/02 09:55:46;;;;;;;7.87;5.97;;;;;;;27.25;54.73;98663.30;1698628;83;21092;-43
2021/07/02 09:58:16;;;;;;;8.68;5.90;;;;;;;27.46;53.87;98668.83;1701867;82;21923;-43
2021/07/02 10:00:48;;;;;;;;;;;;;;;27.63;53.28;98679.56;1696831;82;20989;-43
2021/07/02 10:03:16;;;;;;;6.65;5.85;;;;;;;27.73;51.03;98682.31;1689138;83;20478;-43
2021/07/02 10:05:49;;;;;;;6.97;5.45;;;;;;;27.60;51.76;98672.17;1701217;83;21061;-43
2021/07/02 10:08:18;;;;;;;5.83;5.22;;;;;;;27.69;53.03;98676.20;1687945;82;21030;-43
2021/07/02 10:10:45;;;;;;;6.12;5.53;;;;;;;27.84;51.98;98673.27;1706599;83;21156;-43
2021/07/02 10:13:12;;;;;;;6.15;5.40;;;;;;;27.94;50.37;98674.01;1685993;83;21029;-43
2021/07/02 10:15:42;;;;;;;6.12;5.30;;;;;;;27.94;51.10;98667.04;1749803;81;21528;-43
2021/07/02 10:18:16;;;;;;;6.47;5.17;;;;;;;27.98;51.52;98671.75;1751991;80;20938;-43
2021/07/02 10:20:45;;;;;;;5.85;5.25;;;;;;;27.93;50.58;98671.08;1731559;80;21013;-43
2021/07/02 10:23:14;;;;;;;5.72;5.22;;;;;;;27.89;51.49;98672.56;1721287;80;21185;-43
2021/07/02 10:25:42;;;;;;;6.30;5.43;;;;;;;27.93;51.33;98664.11;1723515;80;21037;-43
2021/07/02 10:28:12;;;;;;;6.30;5.67;;;;;;;28.03;51.23;98663.33;1706560;83;21107;-43
2021/07/02 10:30:41;;;;;;;7.33;5.95;;;;;;;28.06;51.18;98663.10;1743293;80;21500;-43
2021/07/02 10:33:08;;;;;;;7.85;5.70;;;;;;;28.00;52.04;98667.86;1730548;80;21543;-43
2021/07/02 10:35:35;;;;;;;6.45;5.75;;;;;;;27.88;50.63;98666.25;1720996;83;21133;-43
2021/07/02 10:38:03;;;;;;;8.13;6.12;;;;;;;27.71;50.90;98667.34;1736904;80;21024;-43
2021/07/02 10:40:42;;;;;;;6.25;5.65;;;;;;;27.63;51.31;98664.24;1736561;80;21056;-43
2021/07/02 10:43:15;;;;;;;7.35;5.60;;;;;;;27.56;51.63;98661.88;1732248;81;21029;-43
2021/07/02 10:46:13;;;;;;;6.97;5.40;;;;;;;27.48;51.39;98660.14;1737276;80;21076;-43
2021/07/02 10:48:59;;;;;;;8.23;5.45;;;;;;;27.51;51.97;98661.20;1740675;80;21152;-43
2021/07/02 10:51:41;;;;;;;10.23;7.83;;;;;;;27.61;51.52;98666.74;1730925;80;21049;-43
2021/07/02 10:54:20;;;;;;;6.60;5.58;;;;;;;27.76;50.81;98655.48;1751178;82;21231;-43
2021/07/02 10:57:06;;;;;;;7.30;5.37;;;;;;;27.98;51.00;98667.58;1755883;80;21538;-43
2021/07/02 10:59:42;;;;;;;6.28;5.40;;;;;;;28.16;49.94;98670.67;1744676;80;20905;-43
2021/07/02 11:02:15;;;;;;;18.17;8.35;;;;;;;28.10;50.62;98662.23;1747660;80;21144;-43
2021/07/02 11:04:52;;;;;;;9.68;6.10;;;;;;;28.05;50.83;98660.17;1728073;80;21020;-43
2021/07/02 11:07:25;;;;;;;8.80;6.00;;;;;;;28.00;50.27;98660.89;1729629;80;21005;-43
2021/07/02 11:09:59;;;;;;;6.22;5.50;;;;;;;28.11;49.18;98653.28;1741417;81;20986;-43
2021/07/02 11:12:33;;;;;;;7.80;5.05;;;;;;;28.24;48.99;98657.03;1750286;80;21073;-43
2021/07/02 11:15:08;;;;;;;6.40;5.30;;;;;;;28.38;48.72;98654.72;1734717;80;21024;-44
2021/07/02 11:17:42;;;;;;;6.55;5.08;;;;;;;28.51;48.07;98655.08;1702927;83;21060;-43
2021/07/02 11:20:23;;;;;;;7.70;4.72;;;;;;;28.61;47.86;98645.22;1695816;83;21032;-43
2021/07/02 11:23:14;;;;;;;10.13;4.30;;;;;;;28.75;47.11;98654.72;1706303;83;21590;-43
2021/07/02 11:25:50;;;;;;;7.30;4.42;;;;;;;28.92;45.71;98647.94;1713519;83;21130;-43
2021/07/02 11:28:22;;;;;;;6.72;5.28;;;;;;;29.04;46.20;98641.78;1704661;82;21138;-44
2021/07/02 11:30:45;;;;;;;8.58;5.22;;;;;;;29.12;45.16;98637.86;1700097;83;21042;-44
2021/07/02 11:33:18;;;;;;;4.65;4.25;;;;;;;29.21;45.97;98632.81;1703007;83;20976;-43
2021/07/02 11:35:50;;;;;;;5.30;4.60;;;;;;;29.40;46.44;98633.12;1697361;83;21039;-43
2021/07/02 11:38:24;;;;;;;5.92;4.78;;;;;;;29.56;45.22;98633.03;1693292;82;21065;-43
2021/07/02 11:41:04;;;;;;;5.37;4.87;;;;;;;29.72;45.69;98626.08;1687641;83;21148;-44
2021/07/02 11:43:39;;;;;;;6.47;5.12;;;;;;;30.04;45.00;98623.03;1685979;82;20966;-44
2021/07/02 11:46:11;;;;;;;8.48;5.53;;;;;;;30.27;44.89;98625.16;1715134;82;21628;-44